KWRL/WRL METAR and TAF weather

Enter ICAO airport designator
Station Type Date Time Source
KWRL METAR 2020/09/28 09:53 UTC NOAA

KWRL 280953Z AUTO 13006KT 10SM CLR A3041 RMK AO2 SLPNO $


Station Type Date Time Source
KWRL Decoded METAR 2020/09/28 09:53 UTC NOAA

WORLAND MUNICIPAL AIRPORT, WY, United States (KWRL) 43-58N 107-57W 1271M
Sep 28, 2020 - 05:53 AM EDT / 2020.09.28 0953 UTC
Wind: from the SE (130 degrees) at 7 MPH (6 KT):0
Visibility: 10 mile(s):0
Sky conditions: clear
Pressure (altimeter): 30.41 in. Hg (1029 hPa)
ob: KWRL 280953Z AUTO 13006KT 10SM CLR A3041 RMK AO2 SLPNO
cycle: 10

Station Type Date Time Source
KWRL TAF 2020/09/28 06:24 UTC NOAA

TAF KWRL 280521Z 2806/2906 VRB04KT P6SM SKC
FM290300 15008KT P6SM SKC
AMD NOT SKED 2806/2809

Example: see airport list